sensor_id;sensor_type;location;lat;lon;timestamp;pressure;altitude;pressure_sealevel;temperature;humidity
34328;BME280;20588;48.840;10.064;2023-02-20T00:01:52;97512.53;;;7.56;nan
34328;BME280;20588;48.840;10.064;2023-02-20T00:04:19;97505.47;;;7.58;nan
34328;BME280;20588;48.840;10.064;2023-02-20T00:06:45;97497.00;;;7.57;nan
34328;BME280;20588;48.840;10.064;2023-02-20T00:09:11;97510.75;;;7.56;nan
34328;BME280;20588;48.840;10.064;2023-02-20T00:11:38;97513.31;;;7.56;nan
34328;BME280;20588;48.840;10.064;2023-02-20T00:14:04;97522.78;;;7.56;nan
34328;BME280;20588;48.840;10.064;2023-02-20T00:16:30;97525.50;;;7.54;nan
34328;BME280;20588;48.840;10.064;2023-02-20T00:18:56;97522.78;;;7.56;nan
34328;BME280;20588;48.840;10.064;2023-02-20T00:21:22;97521.00;;;7.56;nan
34328;BME280;20588;48.840;10.064;2023-02-20T00:23:49;97514.13;;;7.57;nan
34328;BME280;20588;48.840;10.064;2023-02-20T00:26:15;97508.19;;;7.56;nan
34328;BME280;20588;48.840;10.064;2023-02-20T00:28:42;97508.66;;;7.60;nan
34328;BME280;20588;48.840;10.064;2023-02-20T00:31:14;97507.53;;;7.62;nan
34328;BME280;20588;48.840;10.064;2023-02-20T00:33:41;97514.44;;;7.62;nan
34328;BME280;20588;48.840;10.064;2023-02-20T00:36:07;97508.34;;;7.63;nan
34328;BME280;20588;48.840;10.064;2023-02-20T00:38:39;97512.66;;;7.62;nan
34328;BME280;20588;48.840;10.064;2023-02-20T00:41:06;97514.44;;;7.62;nan
34328;BME280;20588;48.840;10.064;2023-02-20T00:43:32;97520.97;;;7.64;nan
34328;BME280;20588;48.840;10.064;2023-02-20T00:46:01;97517.91;;;7.69;nan
34328;BME280;20588;48.840;10.064;2023-02-20T00:48:27;97521.28;;;7.69;nan
34328;BME280;20588;48.840;10.064;2023-02-20T00:50:53;97528.31;;;7.67;nan
34328;BME280;20588;48.840;10.064;2023-02-20T00:53:19;97537.75;;;7.67;nan
34328;BME280;20588;48.840;10.064;2023-02-20T00:55:45;97531.22;;;7.64;nan
34328;BME280;20588;48.840;10.064;2023-02-20T00:58:11;97538.91;;;7.64;nan
34328;BME280;20588;48.840;10.064;2023-02-20T01:00:37;97535.38;;;7.65;nan
34328;BME280;20588;48.840;10.064;2023-02-20T01:03:03;97526.09;;;7.64;nan
34328;BME280;20588;48.840;10.064;2023-02-20T01:05:29;97521.94;;;7.63;nan
34328;BME280;20588;48.840;10.064;2023-02-20T01:07:55;97516.81;;;7.63;nan
34328;BME280;20588;48.840;10.064;2023-02-20T01:10:21;97519.72;;;7.60;nan
34328;BME280;20588;48.840;10.064;2023-02-20T01:12:47;97511.69;;;7.63;nan
34328;BME280;20588;48.840;10.064;2023-02-20T01:15:14;97518.56;;;7.63;nan
34328;BME280;20588;48.840;10.064;2023-02-20T01:17:40;97515.84;;;7.64;nan
34328;BME280;20588;48.840;10.064;2023-02-20T01:20:08;97512.81;;;7.61;nan
34328;BME280;20588;48.840;10.064;2023-02-20T01:22:35;97505.94;;;7.61;nan
34328;BME280;20588;48.840;10.064;2023-02-20T01:25:01;97519.38;;;7.63;nan
34328;BME280;20588;48.840;10.064;2023-02-20T01:27:27;97518.28;;;7.58;nan
34328;BME280;20588;48.840;10.064;2023-02-20T01:29:53;97512.53;;;7.56;nan
34328;BME280;20588;48.840;10.064;2023-02-20T01:32:19;97513.31;;;7.56;nan
34328;BME280;20588;48.840;10.064;2023-02-20T01:34:45;97505.63;;;7.56;nan
34328;BME280;20588;48.840;10.064;2023-02-20T01:37:13;97508.34;;;7.55;nan
34328;BME280;20588;48.840;10.064;2023-02-20T01:39:39;97501.00;;;7.52;nan
34328;BME280;20588;48.840;10.064;2023-02-20T01:42:07;97515.44;;;7.53;nan
34328;BME280;20588;48.840;10.064;2023-02-20T01:44:36;97508.84;;;7.50;nan
34328;BME280;20588;48.840;10.064;2023-02-20T01:47:07;97509.34;;;7.54;nan
34328;BME280;20588;48.840;10.064;2023-02-20T01:52:13;97502.31;;;7.48;nan
34328;BME280;20588;48.840;10.064;2023-02-20T01:54:42;97503.28;;;7.47;nan
34328;BME280;20588;48.840;10.064;2023-02-20T01:57:15;97501.84;;;7.44;nan
34328;BME280;20588;48.840;10.064;2023-02-20T01:59:43;97491.59;;;7.44;nan
34328;BME280;20588;48.840;10.064;2023-02-20T02:02:11;97501.06;;;7.44;nan
34328;BME280;20588;48.840;10.064;2023-02-20T02:04:38;97487.63;;;7.42;nan
34328;BME280;20588;48.840;10.064;2023-02-20T02:07:05;97473.84;;;7.43;nan
34328;BME280;20588;48.840;10.064;2023-02-20T02:09:49;97474.19;;;7.39;nan
34328;BME280;20588;48.840;10.064;2023-02-20T02:12:17;97465.38;;;7.42;nan
34328;BME280;20588;48.840;10.064;2023-02-20T02:14:43;97474.34;;;7.38;nan
34328;BME280;20588;48.840;10.064;2023-02-20T02:25:54;97470.69;;;7.32;nan
34328;BME280;20588;48.840;10.064;2023-02-20T02:37:43;97467.31;;;7.32;nan
34328;BME280;20588;48.840;10.064;2023-02-20T02:40:42;97481.72;;;7.33;nan
34328;BME280;20588;48.840;10.064;2023-02-20T02:43:28;97474.69;;;7.35;nan
34328;BME280;20588;48.840;10.064;2023-02-20T02:46:08;97486.06;;;7.32;nan
34328;BME280;20588;48.840;10.064;2023-02-20T02:48:46;97472.44;;;7.32;nan
34328;BME280;20588;48.840;10.064;2023-02-20T02:51:19;97477.09;;;7.28;nan
34328;BME280;20588;48.840;10.064;2023-02-20T02:54:09;97472.94;;;7.27;nan
34328;BME280;20588;48.840;10.064;2023-02-20T02:56:38;97476.00;;;7.23;nan
34328;BME280;20588;48.840;10.064;2023-02-20T02:59:06;97479.84;;;7.19;nan
34328;BME280;20588;48.840;10.064;2023-02-20T03:01:40;97465.31;;;7.11;nan
34328;BME280;20588;48.840;10.064;2023-02-20T03:04:10;97465.34;;;7.03;nan
34328;BME280;20588;48.840;10.064;2023-02-20T03:06:41;97474.31;;;6.91;nan
34328;BME280;20588;48.840;10.064;2023-02-20T03:09:19;97469.38;;;6.82;nan
34328;BME280;20588;48.840;10.064;2023-02-20T03:11:51;97469.25;;;6.75;nan
34328;BME280;20588;48.840;10.064;2023-02-20T03:14:25;97472.75;;;6.74;nan
34328;BME280;20588;48.840;10.064;2023-02-20T03:19:50;97465.28;;;6.57;nan
34328;BME280;20588;48.840;10.064;2023-02-20T03:22:22;97468.16;;;6.54;nan
34328;BME280;20588;48.840;10.064;2023-02-20T03:24:50;97467.19;;;6.47;nan
34328;BME280;20588;48.840;10.064;2023-02-20T03:30:07;97470.38;;;6.49;nan
34328;BME280;20588;48.840;10.064;2023-02-20T03:32:35;97470.53;;;6.39;nan
34328;BME280;20588;48.840;10.064;2023-02-20T03:35:24;97465.13;;;6.34;nan
34328;BME280;20588;48.840;10.064;2023-02-20T03:38:09;97469.09;;;6.29;nan
34328;BME280;20588;48.840;10.064;2023-02-20T03:40:56;97471.03;;;6.27;nan
34328;BME280;20588;48.840;10.064;2023-02-20T03:43:44;97468.63;;;6.25;nan
34328;BME280;20588;48.840;10.064;2023-02-20T03:46:18;97472.00;;;6.18;nan
34328;BME280;20588;48.840;10.064;2023-02-20T03:49:01;97470.53;;;6.15;nan
34328;BME280;20588;48.840;10.064;2023-02-20T03:51:29;97476.44;;;6.16;nan
34328;BME280;20588;48.840;10.064;2023-02-20T03:53:55;97470.38;;;6.09;nan
34328;BME280;20588;48.840;10.064;2023-02-20T03:56:34;97469.88;;;6.05;nan
34328;BME280;20588;48.840;10.064;2023-02-20T03:59:13;97460.81;;;6.03;nan
34328;BME280;20588;48.840;10.064;2023-02-20T04:01:42;97461.28;;;5.98;nan
34328;BME280;20588;48.840;10.064;2023-02-20T04:04:16;97456.47;;;5.95;nan
34328;BME280;20588;48.840;10.064;2023-02-20T04:06:44;97457.25;;;5.96;nan
34328;BME280;20588;48.840;10.064;2023-02-20T04:09:16;97460.63;;;6.04;nan
34328;BME280;20588;48.840;10.064;2023-02-20T04:11:47;97469.41;;;6.10;nan
34328;BME280;20588;48.840;10.064;2023-02-20T04:14:16;97466.53;;;6.13;nan
34328;BME280;20588;48.840;10.064;2023-02-20T04:16:47;97463.03;;;6.22;nan
34328;BME280;20588;48.840;10.064;2023-02-20T04:19:15;97463.38;;;6.27;nan
34328;BME280;20588;48.840;10.064;2023-02-20T04:21:45;97452.50;;;6.33;nan
34328;BME280;20588;48.840;10.064;2023-02-20T04:24:36;97463.34;;;6.35;nan
34328;BME280;20588;48.840;10.064;2023-02-20T04:27:05;97460.63;;;6.36;nan
34328;BME280;20588;48.840;10.064;2023-02-20T04:29:32;97458.56;;;6.40;nan
34328;BME280;20588;48.840;10.064;2023-02-20T04:31:58;97449.00;;;6.42;nan
34328;BME280;20588;48.840;10.064;2023-02-20T04:34:24;97454.09;;;6.42;nan
34328;BME280;20588;48.840;10.064;2023-02-20T04:37:17;97456.34;;;6.45;nan
34328;BME280;20588;48.840;10.064;2023-02-20T04:39:43;97450.25;;;6.46;nan
34328;BME280;20588;48.840;10.064;2023-02-20T04:42:09;97443.56;;;6.45;nan
34328;BME280;20588;48.840;10.064;2023-02-20T04:44:35;97446.09;;;6.45;nan
34328;BME280;20588;48.840;10.064;2023-02-20T04:47:05;97448.50;;;6.46;nan
34328;BME280;20588;48.840;10.064;2023-02-20T04:49:31;97446.09;;;6.45;nan
34328;BME280;20588;48.840;10.064;2023-02-20T04:51:58;97452.81;;;6.46;nan
34328;BME280;20588;48.840;10.064;2023-02-20T04:54:24;97445.94;;;6.46;nan
34328;BME280;20588;48.840;10.064;2023-02-20T04:56:50;97448.81;;;6.43;nan
34328;BME280;20588;48.840;10.064;2023-02-20T04:59:17;97451.72;;;6.40;nan
34328;BME280;20588;48.840;10.064;2023-02-20T05:01:43;97451.22;;;6.45;nan
34328;BME280;20588;48.840;10.064;2023-02-20T05:04:14;97447.53;;;6.39;nan
34328;BME280;20588;48.840;10.064;2023-02-20T05:06:42;97448.00;;;6.35;nan
34328;BME280;20588;48.840;10.064;2023-02-20T05:09:08;97454.72;;;6.28;nan
34328;BME280;20588;48.840;10.064;2023-02-20T05:11:38;97455.53;;;6.28;nan
34328;BME280;20588;48.840;10.064;2023-02-20T05:14:05;97466.25;;;6.24;nan
34328;BME280;20588;48.840;10.064;2023-02-20T05:16:32;97471.03;;;6.19;nan
34328;BME280;20588;48.840;10.064;2023-02-20T05:18:58;97462.88;;;6.15;nan
34328;BME280;20588;48.840;10.064;2023-02-20T05:21:26;97461.59;;;6.11;nan
34328;BME280;20588;48.840;10.064;2023-02-20T05:24:11;97470.38;;;6.09;nan
34328;BME280;20588;48.840;10.064;2023-02-20T05:26:38;97466.38;;;6.06;nan
34328;BME280;20588;48.840;10.064;2023-02-20T05:29:04;97474.19;;;6.05;nan
34328;BME280;20588;48.840;10.064;2023-02-20T05:31:31;97466.88;;;6.10;nan
34328;BME280;20588;48.840;10.064;2023-02-20T05:33:56;97468.78;;;6.08;nan
34328;BME280;20588;48.840;10.064;2023-02-20T05:36:23;97455.84;;;6.01;nan
34328;BME280;20588;48.840;10.064;2023-02-20T05:38:49;97462.22;;;5.97;nan
34328;BME280;20588;48.840;10.064;2023-02-20T05:41:15;97464.16;;;5.95;nan
34328;BME280;20588;48.840;10.064;2023-02-20T05:43:41;97475.47;;;6.01;nan
34328;BME280;20588;48.840;10.064;2023-02-20T05:46:07;97465.41;;;5.91;nan
34328;BME280;20588;48.840;10.064;2023-02-20T05:48:33;97452.28;;;5.86;nan
34328;BME280;20588;48.840;10.064;2023-02-20T05:50:59;97454.22;;;5.84;nan
34328;BME280;20588;48.840;10.064;2023-02-20T05:53:29;97459.81;;;5.88;nan
34328;BME280;20588;48.840;10.064;2023-02-20T05:55:56;97449.88;;;5.85;nan
34328;BME280;20588;48.840;10.064;2023-02-20T05:58:22;97463.91;;;5.81;nan
34328;BME280;20588;48.840;10.064;2023-02-20T06:00:49;97462.47;;;5.78;nan
34328;BME280;20588;48.840;10.064;2023-02-20T06:03:16;97463.41;;;5.77;nan
34328;BME280;20588;48.840;10.064;2023-02-20T06:05:43;97459.75;;;5.72;nan
34328;BME280;20588;48.840;10.064;2023-02-20T06:08:09;97467.72;;;5.69;nan
34328;BME280;20588;48.840;10.064;2023-02-20T06:10:35;97471.38;;;5.66;nan
34328;BME280;20588;48.840;10.064;2023-02-20T06:13:01;97486.19;;;5.63;nan
34328;BME280;20588;48.840;10.064;2023-02-20T06:15:27;97487.47;;;5.67;nan
34328;BME280;20588;48.840;10.064;2023-02-20T06:17:53;97484.63;;;5.62;nan
34328;BME280;20588;48.840;10.064;2023-02-20T06:20:19;97488.91;;;5.61;nan
34328;BME280;20588;48.840;10.064;2023-02-20T06:22:47;97488.25;;;5.59;nan
34328;BME280;20588;48.840;10.064;2023-02-20T06:25:14;97493.09;;;5.70;nan
34328;BME280;20588;48.840;10.064;2023-02-20T06:27:40;97493.75;;;5.72;nan
34328;BME280;20588;48.840;10.064;2023-02-20T06:30:07;97506.34;;;5.74;nan
34328;BME280;20588;48.840;10.064;2023-02-20T06:32:33;97502.69;;;5.76;nan
34328;BME280;20588;48.840;10.064;2023-02-20T06:34:59;97508.00;;;5.83;nan
34328;BME280;20588;48.840;10.064;2023-02-20T06:37:25;97498.56;;;5.83;nan
34328;BME280;20588;48.840;10.064;2023-02-20T06:39:51;97493.66;;;5.90;nan
34328;BME280;20588;48.840;10.064;2023-02-20T06:42:17;97492.69;;;5.99;nan
34328;BME280;20588;48.840;10.064;2023-02-20T06:44:43;97494.97;;;6.10;nan
34328;BME280;20588;48.840;10.064;2023-02-20T06:47:10;97488.28;;;6.33;nan
34328;BME280;20588;48.840;10.064;2023-02-20T06:49:36;97492.28;;;6.67;nan
34328;BME280;20588;48.840;10.064;2023-02-20T06:52:06;97494.16;;;6.89;nan
34328;BME280;20588;48.840;10.064;2023-02-20T06:54:32;97496.03;;;7.03;nan
34328;BME280;20588;48.840;10.064;2023-02-20T06:56:59;97502.09;;;7.10;nan
34328;BME280;20588;48.840;10.064;2023-02-20T06:59:25;97500.94;;;7.29;nan
34328;BME280;20588;48.840;10.064;2023-02-20T07:01:52;97506.00;;;7.45;nan
34328;BME280;20588;48.840;10.064;2023-02-20T07:04:21;97511.03;;;7.69;nan
34328;BME280;20588;48.840;10.064;2023-02-20T07:06:48;97513.78;;;8.21;nan
34328;BME280;20588;48.840;10.064;2023-02-20T07:09:15;97517.75;;;8.91;nan
34328;BME280;20588;48.840;10.064;2023-02-20T07:11:41;97516.09;;;9.27;nan
34328;BME280;20588;48.840;10.064;2023-02-20T07:14:08;97518.63;;;9.85;nan
34328;BME280;20588;48.840;10.064;2023-02-20T07:16:34;97509.44;;;10.47;nan
34328;BME280;20588;48.840;10.064;2023-02-20T07:19:00;97520.84;;;10.87;nan
34328;BME280;20588;48.840;10.064;2023-02-20T07:21:26;97527.00;;;10.65;nan
34328;BME280;20588;48.840;10.064;2023-02-20T07:23:52;97528.81;;;10.71;nan
34328;BME280;20588;48.840;10.064;2023-02-20T07:26:24;97519.88;;;11.16;nan
34328;BME280;20588;48.840;10.064;2023-02-20T07:28:52;97520.06;;;11.82;nan
34328;BME280;20588;48.840;10.064;2023-02-20T07:31:18;97518.44;;;12.54;nan
34328;BME280;20588;48.840;10.064;2023-02-20T07:33:44;97527.34;;;13.50;nan
34328;BME280;20588;48.840;10.064;2023-02-20T07:36:12;97520.88;;;14.35;nan
34328;BME280;20588;48.840;10.064;2023-02-20T07:38:38;97524.94;;;14.81;nan
34328;BME280;20588;48.840;10.064;2023-02-20T07:41:05;97524.34;;;15.03;nan
34328;BME280;20588;48.840;10.064;2023-02-20T07:43:31;97531.66;;;15.13;nan
34328;BME280;20588;48.840;10.064;2023-02-20T07:45:57;97535.19;;;15.18;nan
34328;BME280;20588;48.840;10.064;2023-02-20T07:48:24;97523.41;;;14.98;nan
34328;BME280;20588;48.840;10.064;2023-02-20T07:50:50;97517.38;;;14.79;nan
34328;BME280;20588;48.840;10.064;2023-02-20T07:53:19;97507.69;;;14.93;nan
34328;BME280;20588;48.840;10.064;2023-02-20T07:55:45;97493.19;;;15.52;nan
34328;BME280;20588;48.840;10.064;2023-02-20T07:58:11;97493.59;;;15.85;nan
34328;BME280;20588;48.840;10.064;2023-02-20T08:00:37;97484.78;;;15.86;nan
34328;BME280;20588;48.840;10.064;2023-02-20T08:03:03;97494.56;;;16.02;nan
34328;BME280;20588;48.840;10.064;2023-02-20T08:05:29;97494.09;;;16.65;nan
34328;BME280;20588;48.840;10.064;2023-02-20T08:07:55;97503.84;;;16.92;nan
34328;BME280;20588;48.840;10.064;2023-02-20T08:10:25;97505.78;;;16.97;nan
34328;BME280;20588;48.840;10.064;2023-02-20T08:12:52;97496.63;;;17.17;nan
34328;BME280;20588;48.840;10.064;2023-02-20T08:15:20;97494.72;;;17.13;nan
34328;BME280;20588;48.840;10.064;2023-02-20T08:17:47;97491.66;;;17.04;nan
34328;BME280;20588;48.840;10.064;2023-02-20T08:20:19;97489.06;;;16.93;nan
34328;BME280;20588;48.840;10.064;2023-02-20T08:22:46;97490.00;;;16.46;nan
34328;BME280;20588;48.840;10.064;2023-02-20T08:25:13;97483.91;;;16.52;nan
34328;BME280;20588;48.840;10.064;2023-02-20T08:27:47;97476.59;;;17.52;nan
34328;BME280;20588;48.840;10.064;2023-02-20T08:30:16;97477.31;;;18.16;nan
34328;BME280;20588;48.840;10.064;2023-02-20T08:32:43;97464.81;;;18.46;nan
34328;BME280;20588;48.840;10.064;2023-02-20T08:35:09;97468.53;;;18.50;nan
34328;BME280;20588;48.840;10.064;2023-02-20T08:37:35;97466.47;;;18.85;nan
34328;BME280;20588;48.840;10.064;2023-02-20T08:40:01;97454.28;;;19.66;nan
34328;BME280;20588;48.840;10.064;2023-02-20T08:42:31;97449.75;;;20.95;nan
34328;BME280;20588;48.840;10.064;2023-02-20T08:44:59;97439.63;;;21.55;nan
34328;BME280;20588;48.840;10.064;2023-02-20T08:47:25;97431.91;;;21.95;nan
34328;BME280;20588;48.840;10.064;2023-02-20T08:49:51;97429.13;;;21.55;nan
34328;BME280;20588;48.840;10.064;2023-02-20T08:52:17;97433.69;;;21.80;nan
34328;BME280;20588;48.840;10.064;2023-02-20T08:54:47;97434.31;;;21.45;nan
34328;BME280;20588;48.840;10.064;2023-02-20T08:57:15;97440.59;;;20.61;nan
34328;BME280;20588;48.840;10.064;2023-02-20T08:59:41;97434.69;;;20.44;nan
34328;BME280;20588;48.840;10.064;2023-02-20T09:02:16;97441.00;;;20.79;nan
34328;BME280;20588;48.840;10.064;2023-02-20T09:04:44;97429.78;;;20.84;nan
34328;BME280;20588;48.840;10.064;2023-02-20T09:07:11;97421.16;;;21.30;nan
34328;BME280;20588;48.840;10.064;2023-02-20T09:09:38;97412.28;;;22.43;nan
34328;BME280;20588;48.840;10.064;2023-02-20T09:12:04;97405.03;;;23.49;nan
34328;BME280;20588;48.840;10.064;2023-02-20T09:14:31;97395.47;;;25.91;nan
34328;BME280;20588;48.840;10.064;2023-02-20T09:16:57;97400.06;;;27.55;nan
34328;BME280;20588;48.840;10.064;2023-02-20T09:19:23;97389.44;;;28.92;nan
34328;BME280;20588;48.840;10.064;2023-02-20T09:21:49;97397.88;;;29.33;nan
34328;BME280;20588;48.840;10.064;2023-02-20T09:24:16;97395.88;;;29.39;nan
34328;BME280;20588;48.840;10.064;2023-02-20T09:26:42;97392.94;;;29.49;nan
34328;BME280;20588;48.840;10.064;2023-02-20T09:29:09;97386.19;;;30.88;nan
34328;BME280;20588;48.840;10.064;2023-02-20T09:31:35;97385.38;;;31.63;nan
34328;BME280;20588;48.840;10.064;2023-02-20T09:34:01;97386.06;;;32.01;nan
34328;BME280;20588;48.840;10.064;2023-02-20T09:36:29;97378.84;;;31.81;nan
34328;BME280;20588;48.840;10.064;2023-02-20T09:38:55;97385.81;;;31.44;nan
34328;BME280;20588;48.840;10.064;2023-02-20T09:43:58;97385.22;;;32.09;nan
34328;BME280;20588;48.840;10.064;2023-02-20T09:46:29;97377.69;;;32.11;nan
34328;BME280;20588;48.840;10.064;2023-02-20T09:49:09;97381.16;;;30.95;nan
34328;BME280;20588;48.840;10.064;2023-02-20T09:51:44;97386.53;;;31.74;nan
34328;BME280;20588;48.840;10.064;2023-02-20T09:54:25;97368.09;;;32.75;nan
34328;BME280;20588;48.840;10.064;2023-02-20T09:56:57;97366.41;;;32.05;nan
34328;BME280;20588;48.840;10.064;2023-02-20T10:00:09;97362.69;;;30.27;nan
34328;BME280;20588;48.840;10.064;2023-02-20T10:02:18;97370.13;;;29.39;nan
34328;BME280;20588;48.840;10.064;2023-02-20T10:04:50;97361.28;;;27.86;nan
34328;BME280;20588;48.840;10.064;2023-02-20T10:07:33;97360.97;;;27.11;nan
34328;BME280;20588;48.840;10.064;2023-02-20T10:10:03;97364.38;;;26.07;nan
34328;BME280;20588;48.840;10.064;2023-02-20T10:12:38;97357.06;;;24.44;nan
34328;BME280;20588;48.840;10.064;2023-02-20T10:20:44;97347.91;;;26.61;nan
34328;BME280;20588;48.840;10.064;2023-02-20T10:25:52;97344.72;;;30.24;nan
34328;BME280;20588;48.840;10.064;2023-02-20T10:28:20;97345.16;;;31.26;nan
34328;BME280;20588;48.840;10.064;2023-02-20T10:33:40;97346.03;;;33.11;nan
34328;BME280;20588;48.840;10.064;2023-02-20T10:39:06;97366.09;;;33.80;nan
34328;BME280;20588;48.840;10.064;2023-02-20T10:44:30;97358.59;;;33.98;nan
34328;BME280;20588;48.840;10.064;2023-02-20T10:50:04;97338.56;;;32.92;nan
34328;BME280;20588;48.840;10.064;2023-02-20T10:55:26;97345.81;;;33.16;nan
34328;BME280;20588;48.840;10.064;2023-02-20T10:57:57;97340.50;;;32.47;nan
34328;BME280;20588;48.840;10.064;2023-02-20T11:00:35;97336.84;;;32.51;nan
34328;BME280;20588;48.840;10.064;2023-02-20T11:03:11;97336.28;;;32.25;nan
34328;BME280;20588;48.840;10.064;2023-02-20T11:05:48;97328.91;;;30.90;nan
34328;BME280;20588;48.840;10.064;2023-02-20T11:08:16;97319.91;;;29.86;nan
34328;BME280;20588;48.840;10.064;2023-02-20T11:10:47;97317.84;;;29.57;nan
34328;BME280;20588;48.840;10.064;2023-02-20T11:13:17;97308.97;;;28.36;nan
34328;BME280;20588;48.840;10.064;2023-02-20T11:15:45;97303.63;;;27.25;nan
34328;BME280;20588;48.840;10.064;2023-02-20T11:18:23;97305.03;;;26.36;nan
34328;BME280;20588;48.840;10.064;2023-02-20T11:20:54;97298.69;;;26.05;nan
34328;BME280;20588;48.840;10.064;2023-02-20T11:23:40;97291.91;;;25.25;nan
34328;BME280;20588;48.840;10.064;2023-02-20T11:26:21;97291.97;;;25.02;nan
34328;BME280;20588;48.840;10.064;2023-02-20T11:31:34;97287.75;;;24.77;nan
34328;BME280;20588;48.840;10.064;2023-02-20T11:34:02;97288.47;;;24.83;nan
34328;BME280;20588;48.840;10.064;2023-02-20T11:36:36;97273.16;;;24.37;nan
34328;BME280;20588;48.840;10.064;2023-02-20T11:39:23;97274.66;;;24.43;nan
34328;BME280;20588;48.840;10.064;2023-02-20T11:44:35;97273.28;;;24.51;nan
34328;BME280;20588;48.840;10.064;2023-02-20T11:47:22;97267.63;;;24.62;nan
34328;BME280;20588;48.840;10.064;2023-02-20T11:49:49;97261.28;;;24.63;nan
34328;BME280;20588;48.840;10.064;2023-02-20T11:52:32;97255.47;;;24.43;nan
34328;BME280;20588;48.840;10.064;2023-02-20T11:55:16;97244.13;;;24.19;nan
34328;BME280;20588;48.840;10.064;2023-02-20T11:57:44;97246.69;;;24.00;nan
34328;BME280;20588;48.840;10.064;2023-02-20T12:00:26;97241.16;;;23.63;nan
34328;BME280;20588;48.840;10.064;2023-02-20T12:03:09;97240.00;;;23.79;nan
34328;BME280;20588;48.840;10.064;2023-02-20T12:05:41;97239.88;;;23.94;nan
34328;BME280;20588;48.840;10.064;2023-02-20T12:11:19;97217.03;;;23.90;nan
34328;BME280;20588;48.840;10.064;2023-02-20T12:13:47;97227.63;;;23.80;nan
34328;BME280;20588;48.840;10.064;2023-02-20T12:18:54;97209.56;;;23.68;nan
34328;BME280;20588;48.840;10.064;2023-02-20T12:27:45;97201.84;;;23.04;nan
34328;BME280;20588;48.840;10.064;2023-02-20T12:46:56;97166.19;;;22.40;nan
34328;BME280;20588;48.840;10.064;2023-02-20T12:52:28;97158.97;;;21.97;nan
34328;BME280;20588;48.840;10.064;2023-02-20T13:00:49;97147.47;;;21.78;nan
34328;BME280;20588;48.840;10.064;2023-02-20T13:05:50;97134.91;;;21.29;nan
34328;BME280;20588;48.840;10.064;2023-02-20T13:10:59;97135.63;;;20.90;nan
34328;BME280;20588;48.840;10.064;2023-02-20T13:13:37;97140.38;;;20.98;nan
34328;BME280;20588;48.840;10.064;2023-02-20T13:16:30;97141.88;;;20.69;nan
34328;BME280;20588;48.840;10.064;2023-02-20T13:19:06;97125.09;;;20.55;nan
34328;BME280;20588;48.840;10.064;2023-02-20T13:21:36;97109.34;;;20.40;nan
34328;BME280;20588;48.840;10.064;2023-02-20T13:27:06;97105.25;;;20.07;nan
34328;BME280;20588;48.840;10.064;2023-02-20T13:32:28;97094.28;;;20.00;nan
34328;BME280;20588;48.840;10.064;2023-02-20T13:38:19;97097.06;;;19.84;nan
34328;BME280;20588;48.840;10.064;2023-02-20T13:45:48;97083.69;;;19.75;nan
34328;BME280;20588;48.840;10.064;2023-02-20T13:56:42;97077.69;;;19.33;nan
34328;BME280;20588;48.840;10.064;2023-02-20T13:59:13;97068.53;;;19.30;nan
34328;BME280;20588;48.840;10.064;2023-02-20T14:02:17;97066.66;;;19.26;nan
34328;BME280;20588;48.840;10.064;2023-02-20T14:04:54;97056.50;;;18.93;nan
34328;BME280;20588;48.840;10.064;2023-02-20T14:07:50;97063.34;;;18.72;nan
34328;BME280;20588;48.840;10.064;2023-02-20T14:13:03;97042.94;;;18.38;nan
34328;BME280;20588;48.840;10.064;2023-02-20T14:15:42;97028.44;;;18.25;nan
34328;BME280;20588;48.840;10.064;2023-02-20T14:18:18;97014.50;;;18.15;nan
34328;BME280;20588;48.840;10.064;2023-02-20T14:20:45;97010.69;;;17.95;nan
34328;BME280;20588;48.840;10.064;2023-02-20T14:23:27;97007.59;;;17.98;nan
34328;BME280;20588;48.840;10.064;2023-02-20T14:25:55;97009.03;;;18.11;nan
34328;BME280;20588;48.840;10.064;2023-02-20T14:28:21;97017.81;;;18.05;nan
34328;BME280;20588;48.840;10.064;2023-02-20T14:31:03;97020.66;;;18.04;nan
34328;BME280;20588;48.840;10.064;2023-02-20T14:33:31;97026.66;;;18.04;nan
34328;BME280;20588;48.840;10.064;2023-02-20T14:36:04;97023.44;;;17.97;nan
34328;BME280;20588;48.840;10.064;2023-02-20T14:38:50;97017.44;;;17.96;nan
34328;BME280;20588;48.840;10.064;2023-02-20T14:41:21;97016.19;;;17.77;nan
34328;BME280;20588;48.840;10.064;2023-02-20T14:43:58;97006.41;;;17.63;nan
34328;BME280;20588;48.840;10.064;2023-02-20T14:46:27;97010.28;;;17.44;nan
34328;BME280;20588;48.840;10.064;2023-02-20T14:49:25;97010.19;;;17.39;nan
34328;BME280;20588;48.840;10.064;2023-02-20T14:52:02;97006.19;;;17.31;nan
34328;BME280;20588;48.840;10.064;2023-02-20T14:54:28;97007.25;;;17.14;nan
34328;BME280;20588;48.840;10.064;2023-02-20T14:56:55;97010.97;;;17.01;nan
34328;BME280;20588;48.840;10.064;2023-02-20T14:59:30;96998.84;;;16.90;nan
34328;BME280;20588;48.840;10.064;2023-02-20T15:02:00;97008.22;;;16.75;nan
34328;BME280;20588;48.840;10.064;2023-02-20T15:04:28;97002.09;;;16.64;nan
34328;BME280;20588;48.840;10.064;2023-02-20T15:07:01;97011.06;;;16.57;nan
34328;BME280;20588;48.840;10.064;2023-02-20T15:09:36;97006.69;;;16.46;nan
34328;BME280;20588;48.840;10.064;2023-02-20T15:12:03;97003.00;;;16.30;nan
34328;BME280;20588;48.840;10.064;2023-02-20T15:14:32;97002.84;;;16.20;nan
34328;BME280;20588;48.840;10.064;2023-02-20T15:19:39;97002.84;;;16.20;nan
34328;BME280;20588;48.840;10.064;2023-02-20T15:22:20;96999.91;;;16.16;nan
34328;BME280;20588;48.840;10.064;2023-02-20T15:24:46;96997.44;;;16.10;nan
34328;BME280;20588;48.840;10.064;2023-02-20T15:27:18;96999.47;;;15.91;nan
34328;BME280;20588;48.840;10.064;2023-02-20T15:29:46;96987.94;;;15.87;nan
34328;BME280;20588;48.840;10.064;2023-02-20T15:32:17;96982.00;;;15.75;nan
34328;BME280;20588;48.840;10.064;2023-02-20T15:34:54;96996.34;;;15.78;nan
34328;BME280;20588;48.840;10.064;2023-02-20T15:37:23;97002.47;;;15.60;nan
34328;BME280;20588;48.840;10.064;2023-02-20T15:39:50;96993.47;;;15.51;nan
34328;BME280;20588;48.840;10.064;2023-02-20T15:42:18;96990.91;;;15.40;nan